sensor_id;sensor_type;location;lat;lon;timestamp;pressure;altitude;pressure_sealevel;temperature;humidity
50057;BME280;36875;49.468;11.200;2023-01-09T00:02:05;96350.53;;;24.04;39.18
50057;BME280;36875;49.468;11.200;2023-01-09T00:04:31;96353.28;;;24.04;39.13
50057;BME280;36875;49.468;11.200;2023-01-09T00:06:56;96345.41;;;24.03;39.34
50057;BME280;36875;49.468;11.200;2023-01-09T00:09:23;96335.25;;;24.07;39.36
50057;BME280;36875;49.468;11.200;2023-01-09T00:11:49;96338.44;;;24.13;38.91
50057;BME280;36875;49.468;11.200;2023-01-09T00:14:14;96330.13;;;24.05;38.92
50057;BME280;36875;49.468;11.200;2023-01-09T00:16:40;96324.22;;;24.03;39.06
50057;BME280;36875;49.468;11.200;2023-01-09T00:19:07;96325.41;;;24.02;39.13
50057;BME280;36875;49.468;11.200;2023-01-09T00:21:32;96316.78;;;24.08;39.00
50057;BME280;36875;49.468;11.200;2023-01-09T00:23:58;96291.09;;;23.89;39.07
50057;BME280;36875;49.468;11.200;2023-01-09T00:26:23;96312.06;;;24.04;39.37
50057;BME280;36875;49.468;11.200;2023-01-09T00:28:50;96313.97;;;24.00;39.06
50057;BME280;36875;49.468;11.200;2023-01-09T00:31:17;96314.31;;;23.95;39.11
50057;BME280;36875;49.468;11.200;2023-01-09T00:33:44;96312.72;;;23.94;39.08
50057;BME280;36875;49.468;11.200;2023-01-09T00:36:11;96311.56;;;23.95;39.05
50057;BME280;36875;49.468;11.200;2023-01-09T00:38:37;96307.59;;;23.93;39.18
50057;BME280;36875;49.468;11.200;2023-01-09T00:41:03;96311.16;;;23.93;39.27
50057;BME280;36875;49.468;11.200;2023-01-09T00:43:33;96305.59;;;23.86;39.49
50057;BME280;36875;49.468;11.200;2023-01-09T00:46:02;96297.75;;;23.88;39.34
50057;BME280;36875;49.468;11.200;2023-01-09T00:48:31;96300.09;;;23.86;39.24
50057;BME280;36875;49.468;11.200;2023-01-09T00:50:58;96285.94;;;23.84;39.11
50057;BME280;36875;49.468;11.200;2023-01-09T00:53:28;96292.13;;;23.77;39.37
50057;BME280;36875;49.468;11.200;2023-01-09T00:55:54;96280.69;;;23.72;39.56
50057;BME280;36875;49.468;11.200;2023-01-09T00:58:22;96277.16;;;23.71;39.31
50057;BME280;36875;49.468;11.200;2023-01-09T01:00:48;96285.38;;;23.71;39.56
50057;BME280;36875;49.468;11.200;2023-01-09T01:03:13;96277.88;;;23.68;39.44
50057;BME280;36875;49.468;11.200;2023-01-09T01:05:39;96273.59;;;23.71;39.29
50057;BME280;36875;49.468;11.200;2023-01-09T01:08:24;96278.59;;;23.61;39.78
50057;BME280;36875;49.468;11.200;2023-01-09T01:10:50;96259.81;;;23.67;39.42
50057;BME280;36875;49.468;11.200;2023-01-09T01:13:15;96270.75;;;23.63;39.34
50057;BME280;36875;49.468;11.200;2023-01-09T01:15:42;96264.44;;;23.59;39.56
50057;BME280;36875;49.468;11.200;2023-01-09T01:18:08;96273.81;;;23.55;39.72
50057;BME280;36875;49.468;11.200;2023-01-09T01:20:34;96272.53;;;23.48;39.71
50057;BME280;36875;49.468;11.200;2023-01-09T01:23:00;96270.63;;;23.49;39.42
50057;BME280;36875;49.468;11.200;2023-01-09T01:25:26;96284.25;;;23.42;39.61
50057;BME280;36875;49.468;11.200;2023-01-09T01:27:52;96286.19;;;23.41;39.67
50057;BME280;36875;49.468;11.200;2023-01-09T01:30:18;96271.22;;;23.35;39.72
50057;BME280;36875;49.468;11.200;2023-01-09T01:32:44;96268.44;;;23.32;39.88
50057;BME280;36875;49.468;11.200;2023-01-09T01:35:10;96264.84;;;23.27;39.79
50057;BME280;36875;49.468;11.200;2023-01-09T01:37:36;96264.06;;;23.27;39.88
50057;BME280;36875;49.468;11.200;2023-01-09T01:40:05;96274.22;;;23.26;39.92
50057;BME280;36875;49.468;11.200;2023-01-09T01:42:33;96273.81;;;23.24;40.03
50057;BME280;36875;49.468;11.200;2023-01-09T01:45:03;96285.94;;;23.20;39.96
50057;BME280;36875;49.468;11.200;2023-01-09T01:47:40;96273.31;;;23.15;39.90
50057;BME280;36875;49.468;11.200;2023-01-09T01:50:11;96266.25;;;23.14;40.10
50057;BME280;36875;49.468;11.200;2023-01-09T01:52:40;96266.31;;;23.18;39.89
50057;BME280;36875;49.468;11.200;2023-01-09T01:55:08;96256.00;;;23.11;40.09
50057;BME280;36875;49.468;11.200;2023-01-09T01:57:36;96272.38;;;23.04;40.07
50057;BME280;36875;49.468;11.200;2023-01-09T02:00:06;96273.06;;;23.01;40.16
50057;BME280;36875;49.468;11.200;2023-01-09T02:02:32;96270.69;;;22.99;40.15
50057;BME280;36875;49.468;11.200;2023-01-09T02:04:59;96263.91;;;22.89;40.45
50057;BME280;36875;49.468;11.200;2023-01-09T02:07:26;96269.09;;;22.95;40.45
50057;BME280;36875;49.468;11.200;2023-01-09T02:09:52;96260.44;;;22.93;40.15
50057;BME280;36875;49.468;11.200;2023-01-09T02:12:21;96249.38;;;22.85;40.36
50057;BME280;36875;49.468;11.200;2023-01-09T02:14:51;96233.63;;;22.82;40.33
50057;BME280;36875;49.468;11.200;2023-01-09T02:17:25;96237.56;;;22.81;40.21
50057;BME280;36875;49.468;11.200;2023-01-09T02:23:08;96235.06;;;22.73;40.41
50057;BME280;36875;49.468;11.200;2023-01-09T02:25:55;96258.91;;;22.68;40.48
50057;BME280;36875;49.468;11.200;2023-01-09T02:28:51;96244.91;;;22.74;40.39
50057;BME280;36875;49.468;11.200;2023-01-09T02:31:31;96237.34;;;22.67;40.50
50057;BME280;36875;49.468;11.200;2023-01-09T02:34:04;96227.09;;;22.64;40.67
50057;BME280;36875;49.468;11.200;2023-01-09T02:36:37;96215.31;;;22.60;40.33
50057;BME280;36875;49.468;11.200;2023-01-09T02:39:18;96218.03;;;22.60;40.39
50057;BME280;36875;49.468;11.200;2023-01-09T02:41:49;96212.44;;;22.52;40.74
50057;BME280;36875;49.468;11.200;2023-01-09T02:44:20;96205.78;;;22.50;40.96
50057;BME280;36875;49.468;11.200;2023-01-09T02:46:58;96217.03;;;22.45;40.81
50057;BME280;36875;49.468;11.200;2023-01-09T02:49:24;96186.66;;;22.30;40.72
50057;BME280;36875;49.468;11.200;2023-01-09T02:51:51;96206.44;;;22.43;40.71
50057;BME280;36875;49.468;11.200;2023-01-09T02:54:27;96209.84;;;22.37;40.87
50057;BME280;36875;49.468;11.200;2023-01-09T02:57:19;96201.31;;;22.42;40.87
50057;BME280;36875;49.468;11.200;2023-01-09T03:00:00;96189.03;;;22.32;40.77
50057;BME280;36875;49.468;11.200;2023-01-09T03:02:46;96180.03;;;22.31;40.71
50057;BME280;36875;49.468;11.200;2023-01-09T03:05:19;96161.28;;;22.10;41.13
50057;BME280;36875;49.468;11.200;2023-01-09T03:07:54;96183.00;;;22.23;41.01
50057;BME280;36875;49.468;11.200;2023-01-09T03:10:23;96184.91;;;22.19;40.92
50057;BME280;36875;49.468;11.200;2023-01-09T03:12:52;96179.44;;;22.19;41.11
50057;BME280;36875;49.468;11.200;2023-01-09T03:15:20;96174.63;;;22.12;40.77
50057;BME280;36875;49.468;11.200;2023-01-09T03:17:50;96183.25;;;22.14;41.09
50057;BME280;36875;49.468;11.200;2023-01-09T03:20:20;96178.13;;;22.12;40.89
50057;BME280;36875;49.468;11.200;2023-01-09T03:25:16;96176.09;;;22.06;41.23
50057;BME280;36875;49.468;11.200;2023-01-09T03:27:42;96176.81;;;22.03;41.29
50057;BME280;36875;49.468;11.200;2023-01-09T03:30:09;96176.03;;;22.02;41.03
50057;BME280;36875;49.468;11.200;2023-01-09T03:32:34;96176.75;;;21.99;41.20
50057;BME280;36875;49.468;11.200;2023-01-09T03:35:01;96179.06;;;21.97;41.15
50057;BME280;36875;49.468;11.200;2023-01-09T03:37:27;96180.56;;;21.94;41.23
50057;BME280;36875;49.468;11.200;2023-01-09T03:39:52;96176.63;;;21.92;41.12
50057;BME280;36875;49.468;11.200;2023-01-09T03:42:18;96178.94;;;21.90;41.16
50057;BME280;36875;49.468;11.200;2023-01-09T03:44:43;96180.47;;;21.87;41.09
50057;BME280;36875;49.468;11.200;2023-01-09T03:47:09;96179.53;;;21.80;41.01
50057;BME280;36875;49.468;11.200;2023-01-09T03:49:34;96179.41;;;21.72;41.52
50057;BME280;36875;49.468;11.200;2023-01-09T03:52:01;96189.34;;;21.81;41.46
50057;BME280;36875;49.468;11.200;2023-01-09T03:54:26;96191.19;;;21.73;41.43
50057;BME280;36875;49.468;11.200;2023-01-09T03:56:52;96196.31;;;21.74;41.42
50057;BME280;36875;49.468;11.200;2023-01-09T03:59:17;96197.44;;;21.73;41.31
50057;BME280;36875;49.468;11.200;2023-01-09T04:01:43;96200.91;;;21.70;41.39
50057;BME280;36875;49.468;11.200;2023-01-09T04:04:08;96200.47;;;21.68;41.27
50057;BME280;36875;49.468;11.200;2023-01-09T04:06:34;96202.00;;;21.66;41.56
50057;BME280;36875;49.468;11.200;2023-01-09T04:09:01;96207.06;;;21.64;41.53
50057;BME280;36875;49.468;11.200;2023-01-09T04:11:26;96208.56;;;21.61;41.63
50057;BME280;36875;49.468;11.200;2023-01-09T04:13:51;96212.03;;;21.58;41.44
50057;BME280;36875;49.468;11.200;2023-01-09T04:16:17;96211.59;;;21.56;41.62
50057;BME280;36875;49.468;11.200;2023-01-09T04:18:42;96208.41;;;21.54;41.49
50057;BME280;36875;49.468;11.200;2023-01-09T04:21:08;96217.00;;;21.52;41.44
50057;BME280;36875;49.468;11.200;2023-01-09T04:23:33;96220.47;;;21.49;41.49
50057;BME280;36875;49.468;11.200;2023-01-09T04:26:00;96212.63;;;21.48;41.56
50057;BME280;36875;49.468;11.200;2023-01-09T04:28:25;96225.88;;;21.46;41.50
50057;BME280;36875;49.468;11.200;2023-01-09T04:30:51;96219.50;;;21.42;41.72
50057;BME280;36875;49.468;11.200;2023-01-09T04:33:16;96228.84;;;21.41;41.78
50057;BME280;36875;49.468;11.200;2023-01-09T04:35:42;96226.06;;;21.37;41.78
50057;BME280;36875;49.468;11.200;2023-01-09T04:38:07;96229.97;;;21.36;41.79
50057;BME280;36875;49.468;11.200;2023-01-09T04:40:33;96225.97;;;21.33;41.77
50057;BME280;36875;49.468;11.200;2023-01-09T04:43:00;96238.09;;;21.32;41.67
50057;BME280;36875;49.468;11.200;2023-01-09T04:45:25;96228.66;;;21.30;41.72
50057;BME280;36875;49.468;11.200;2023-01-09T04:47:51;96230.16;;;21.27;41.82
50057;BME280;36875;49.468;11.200;2023-01-09T04:50:16;96233.25;;;21.26;41.88
50057;BME280;36875;49.468;11.200;2023-01-09T04:52:42;96214.16;;;21.10;41.90
50057;BME280;36875;49.468;11.200;2023-01-09T04:55:08;96236.72;;;21.23;41.76
50057;BME280;36875;49.468;11.200;2023-01-09T04:57:34;96239.00;;;21.21;41.97
50057;BME280;36875;49.468;11.200;2023-01-09T05:00:02;96248.75;;;21.18;41.80
50057;BME280;36875;49.468;11.200;2023-01-09T05:02:28;96250.97;;;21.12;42.02
50057;BME280;36875;49.468;11.200;2023-01-09T05:04:54;96256.78;;;21.11;41.98
50057;BME280;36875;49.468;11.200;2023-01-09T05:07:19;96257.16;;;21.09;41.90
50057;BME280;36875;49.468;11.200;2023-01-09T05:09:45;96255.13;;;21.06;42.07
50057;BME280;36875;49.468;11.200;2023-01-09T05:12:10;96262.91;;;21.04;41.98
50057;BME280;36875;49.468;11.200;2023-01-09T05:14:36;96266.44;;;21.05;41.94
50057;BME280;36875;49.468;11.200;2023-01-09T05:17:02;96268.75;;;21.03;42.01
50057;BME280;36875;49.468;11.200;2023-01-09T05:19:28;96271.41;;;20.99;42.08
50057;BME280;36875;49.468;11.200;2023-01-09T05:21:53;96274.50;;;20.97;42.18
50057;BME280;36875;49.468;11.200;2023-01-09T05:24:19;96270.50;;;20.95;41.99
50057;BME280;36875;49.468;11.200;2023-01-09T05:26:45;96269.72;;;20.94;42.25
50057;BME280;36875;49.468;11.200;2023-01-09T05:29:10;96280.22;;;20.92;42.29
50057;BME280;36875;49.468;11.200;2023-01-09T05:31:36;96289.13;;;20.89;42.31
50057;BME280;36875;49.468;11.200;2023-01-09T05:34:02;96294.16;;;20.87;42.73
50057;BME280;36875;49.468;11.200;2023-01-09T05:36:28;96292.53;;;20.83;42.60
50057;BME280;36875;49.468;11.200;2023-01-09T05:38:54;96301.06;;;20.81;42.80
50057;BME280;36875;49.468;11.200;2023-01-09T05:41:22;96305.72;;;20.80;42.84
50057;BME280;36875;49.468;11.200;2023-01-09T05:43:47;96304.66;;;20.85;42.53
50057;BME280;36875;49.468;11.200;2023-01-09T05:46:12;96320.91;;;20.94;42.38
50057;BME280;36875;49.468;11.200;2023-01-09T05:48:38;96311.59;;;20.98;42.42
50057;BME280;36875;49.468;11.200;2023-01-09T05:51:05;96315.84;;;21.12;42.04
50057;BME280;36875;49.468;11.200;2023-01-09T05:53:30;96323.63;;;21.29;41.95
50057;BME280;36875;49.468;11.200;2023-01-09T05:55:56;96334.09;;;21.43;41.71
50057;BME280;36875;49.468;11.200;2023-01-09T05:58:21;96330.09;;;21.56;41.62
50057;BME280;36875;49.468;11.200;2023-01-09T06:00:47;96324.09;;;21.70;41.34
50057;BME280;36875;49.468;11.200;2023-01-09T06:03:13;96323.75;;;21.91;40.98
50057;BME280;36875;49.468;11.200;2023-01-09T06:05:39;96329.41;;;22.02;40.75
50057;BME280;36875;49.468;11.200;2023-01-09T06:08:05;96335.53;;;22.15;40.60
50057;BME280;36875;49.468;11.200;2023-01-09T06:10:31;96325.91;;;22.25;40.49
50057;BME280;36875;49.468;11.200;2023-01-09T06:12:56;96330.81;;;22.35;40.28
50057;BME280;36875;49.468;11.200;2023-01-09T06:15:22;96330.44;;;22.37;40.61
50057;BME280;36875;49.468;11.200;2023-01-09T06:17:47;96327.28;;;22.58;40.06
50057;BME280;36875;49.468;11.200;2023-01-09T06:20:13;96334.47;;;22.66;40.06
50057;BME280;36875;49.468;11.200;2023-01-09T06:22:38;96330.69;;;22.74;39.85
50057;BME280;36875;49.468;11.200;2023-01-09T06:25:07;96344.81;;;22.76;39.96
50057;BME280;36875;49.468;11.200;2023-01-09T06:27:32;96358.28;;;22.85;39.89
50057;BME280;36875;49.468;11.200;2023-01-09T06:29:58;96362.59;;;22.86;39.78
50057;BME280;36875;49.468;11.200;2023-01-09T06:32:23;96367.84;;;22.95;39.78
50057;BME280;36875;49.468;11.200;2023-01-09T06:34:49;96361.06;;;23.12;39.64
50057;BME280;36875;49.468;11.200;2023-01-09T06:37:14;96372.75;;;23.05;39.65
50057;BME280;36875;49.468;11.200;2023-01-09T06:39:39;96380.75;;;23.17;39.71
50057;BME280;36875;49.468;11.200;2023-01-09T06:42:06;96374.88;;;23.19;39.44
50057;BME280;36875;49.468;11.200;2023-01-09T06:44:32;96383.13;;;23.19;39.53
50057;BME280;36875;49.468;11.200;2023-01-09T06:47:00;96381.28;;;23.26;39.31
50057;BME280;36875;49.468;11.200;2023-01-09T06:49:26;96383.28;;;23.29;38.97
50057;BME280;36875;49.468;11.200;2023-01-09T06:51:51;96391.53;;;23.29;39.12
50057;BME280;36875;49.468;11.200;2023-01-09T06:54:17;96395.09;;;23.34;39.01
50057;BME280;36875;49.468;11.200;2023-01-09T06:56:43;96398.91;;;23.25;39.12
50057;BME280;36875;49.468;11.200;2023-01-09T06:59:11;96411.41;;;23.23;39.09
50057;BME280;36875;49.468;11.200;2023-01-09T07:01:36;96423.56;;;23.22;39.35
50057;BME280;36875;49.468;11.200;2023-01-09T07:04:05;96428.88;;;23.11;39.45
50057;BME280;36875;49.468;11.200;2023-01-09T07:06:30;96434.06;;;23.16;39.39
50057;BME280;36875;49.468;11.200;2023-01-09T07:08:56;96437.16;;;23.15;39.51
50057;BME280;36875;49.468;11.200;2023-01-09T07:11:21;96443.66;;;23.29;39.10
50057;BME280;36875;49.468;11.200;2023-01-09T07:13:47;96436.03;;;23.42;38.99
50057;BME280;36875;49.468;11.200;2023-01-09T07:16:14;96436.19;;;23.53;38.91
50057;BME280;36875;49.468;11.200;2023-01-09T07:18:39;96439.03;;;23.60;38.82
50057;BME280;36875;49.468;11.200;2023-01-09T07:21:05;96447.44;;;23.71;38.50
50057;BME280;36875;49.468;11.200;2023-01-09T07:23:30;96450.78;;;23.84;38.70
50057;BME280;36875;49.468;11.200;2023-01-09T07:25:56;96449.31;;;23.94;38.47
50057;BME280;36875;49.468;11.200;2023-01-09T07:28:22;96464.44;;;24.11;38.17
50057;BME280;36875;49.468;11.200;2023-01-09T07:30:48;96470.13;;;24.25;38.03
50057;BME280;36875;49.468;11.200;2023-01-09T07:33:15;96471.81;;;24.37;37.47
50057;BME280;36875;49.468;11.200;2023-01-09T07:35:41;96457.75;;;24.42;37.93
50057;BME280;36875;49.468;11.200;2023-01-09T07:38:06;96460.31;;;24.58;37.33
50057;BME280;36875;49.468;11.200;2023-01-09T07:40:32;96464.41;;;24.75;37.43
50057;BME280;36875;49.468;11.200;2023-01-09T07:42:58;96463.78;;;24.92;36.76
50057;BME280;36875;49.468;11.200;2023-01-09T07:45:23;96478.56;;;25.18;36.83
50057;BME280;36875;49.468;11.200;2023-01-09T07:47:49;96472.00;;;25.26;36.45
50057;BME280;36875;49.468;11.200;2023-01-09T07:50:18;96483.53;;;25.43;36.45
50057;BME280;36875;49.468;11.200;2023-01-09T07:52:44;96494.22;;;25.51;36.22
50057;BME280;36875;49.468;11.200;2023-01-09T07:55:10;96498.53;;;25.52;35.73
50057;BME280;36875;49.468;11.200;2023-01-09T07:57:35;96497.31;;;25.46;36.37
50057;BME280;36875;49.468;11.200;2023-01-09T08:00:01;96504.13;;;25.63;36.33
50057;BME280;36875;49.468;11.200;2023-01-09T08:02:27;96505.78;;;25.75;36.09
50057;BME280;36875;49.468;11.200;2023-01-09T08:04:53;96508.47;;;25.61;36.55
50057;BME280;36875;49.468;11.200;2023-01-09T08:07:20;96512.34;;;25.56;36.02
50057;BME280;36875;49.468;11.200;2023-01-09T08:09:45;96513.84;;;25.46;35.89
50057;BME280;36875;49.468;11.200;2023-01-09T08:12:11;96514.25;;;25.48;35.67
50057;BME280;36875;49.468;11.200;2023-01-09T08:14:36;96513.56;;;25.58;35.45
50057;BME280;36875;49.468;11.200;2023-01-09T08:17:02;96532.34;;;25.49;35.95
50057;BME280;36875;49.468;11.200;2023-01-09T08:19:27;96525.56;;;25.36;36.25
50057;BME280;36875;49.468;11.200;2023-01-09T08:21:53;96532.50;;;25.23;36.44
50057;BME280;36875;49.468;11.200;2023-01-09T08:24:19;96534.00;;;25.13;36.53
50057;BME280;36875;49.468;11.200;2023-01-09T08:26:45;96541.84;;;25.14;36.64
50057;BME280;36875;49.468;11.200;2023-01-09T08:29:11;96530.00;;;25.10;36.56
50057;BME280;36875;49.468;11.200;2023-01-09T08:31:36;96542.97;;;25.06;36.79
50057;BME280;36875;49.468;11.200;2023-01-09T08:34:02;96547.31;;;25.07;36.76
50057;BME280;36875;49.468;11.200;2023-01-09T08:36:27;96539.38;;;25.02;36.91
50057;BME280;36875;49.468;11.200;2023-01-09T08:38:53;96530.97;;;24.88;37.08
50057;BME280;36875;49.468;11.200;2023-01-09T08:41:20;96560.47;;;24.87;36.69
50057;BME280;36875;49.468;11.200;2023-01-09T08:44:04;96567.38;;;24.74;36.81
50057;BME280;36875;49.468;11.200;2023-01-09T08:46:48;96555.78;;;24.57;37.26
50057;BME280;36875;49.468;11.200;2023-01-09T08:49:31;96570.34;;;24.58;37.56
50057;BME280;36875;49.468;11.200;2023-01-09T08:51:57;96579.75;;;24.57;37.52
50057;BME280;36875;49.468;11.200;2023-01-09T08:54:25;96574.19;;;24.53;37.60
50057;BME280;36875;49.468;11.200;2023-01-09T08:56:52;96572.91;;;24.47;38.00
50057;BME280;36875;49.468;11.200;2023-01-09T08:59:18;96580.69;;;24.41;37.79
50057;BME280;36875;49.468;11.200;2023-01-09T09:01:43;96587.31;;;24.37;38.29
50057;BME280;36875;49.468;11.200;2023-01-09T09:04:09;96596.31;;;24.34;38.14
50057;BME280;36875;49.468;11.200;2023-01-09T09:06:34;96596.63;;;24.29;38.49
50057;BME280;36875;49.468;11.200;2023-01-09T09:09:00;96607.56;;;24.25;38.30
50057;BME280;36875;49.468;11.200;2023-01-09T09:11:31;96606.03;;;24.28;38.51
50057;BME280;36875;49.468;11.200;2023-01-09T09:13:58;96609.34;;;24.40;38.25
50057;BME280;36875;49.468;11.200;2023-01-09T09:16:23;96611.03;;;24.49;38.20
50057;BME280;36875;49.468;11.200;2023-01-09T09:18:49;96611.91;;;24.53;38.18
50057;BME280;36875;49.468;11.200;2023-01-09T09:21:14;96594.25;;;24.54;37.79
50057;BME280;36875;49.468;11.200;2023-01-09T09:23:40;96606.56;;;24.63;37.79
50057;BME280;36875;49.468;11.200;2023-01-09T09:26:05;96611.38;;;24.74;37.34
50057;BME280;36875;49.468;11.200;2023-01-09T09:28:31;96593.53;;;24.91;37.32
50057;BME280;36875;49.468;11.200;2023-01-09T09:30:57;96610.13;;;24.98;37.23
50057;BME280;36875;49.468;11.200;2023-01-09T09:33:23;96610.47;;;25.30;36.92
50057;BME280;36875;49.468;11.200;2023-01-09T09:35:48;96609.34;;;25.35;36.35
50057;BME280;36875;49.468;11.200;2023-01-09T09:38:14;96625.63;;;25.51;36.63
50057;BME280;36875;49.468;11.200;2023-01-09T09:40:57;96622.16;;;25.57;35.97
50057;BME280;36875;49.468;11.200;2023-01-09T09:43:44;96637.63;;;25.73;36.12
50057;BME280;36875;49.468;11.200;2023-01-09T09:46:39;96630.84;;;26.08;35.63
50057;BME280;36875;49.468;11.200;2023-01-09T09:49:11;96636.31;;;26.01;35.51
50057;BME280;36875;49.468;11.200;2023-01-09T09:51:54;96642.69;;;26.08;35.78
50057;BME280;36875;49.468;11.200;2023-01-09T09:54:26;96630.66;;;26.34;35.06
50057;BME280;36875;49.468;11.200;2023-01-09T09:56:57;96637.72;;;26.28;35.47
50057;BME280;36875;49.468;11.200;2023-01-09T09:59:26;96641.16;;;26.14;34.99
50057;BME280;36875;49.468;11.200;2023-01-09T10:01:58;96640.25;;;26.00;35.04
50057;BME280;36875;49.468;11.200;2023-01-09T10:04:26;96642.66;;;26.01;34.78
50057;BME280;36875;49.468;11.200;2023-01-09T10:06:55;96648.19;;;26.05;35.10
50057;BME280;36875;49.468;11.200;2023-01-09T10:09:31;96642.25;;;26.06;35.24
50057;BME280;36875;49.468;11.200;2023-01-09T10:12:04;96639.44;;;25.95;35.05
50057;BME280;36875;49.468;11.200;2023-01-09T10:14:34;96640.16;;;25.89;35.84
50057;BME280;36875;49.468;11.200;2023-01-09T10:17:16;96644.06;;;25.88;35.64
50057;BME280;36875;49.468;11.200;2023-01-09T10:20:01;96639.31;;;25.85;35.31
50057;BME280;36875;49.468;11.200;2023-01-09T10:22:40;96647.97;;;25.83;35.61
50057;BME280;36875;49.468;11.200;2023-01-09T10:25:21;96639.31;;;25.85;35.75
50057;BME280;36875;49.468;11.200;2023-01-09T10:28:07;96635.78;;;25.88;35.29
50057;BME280;36875;49.468;11.200;2023-01-09T10:30:41;96625.06;;;25.75;36.11
50057;BME280;36875;49.468;11.200;2023-01-09T10:33:23;96637.56;;;25.66;36.22
50057;BME280;36875;49.468;11.200;2023-01-09T10:36:05;96630.81;;;25.59;36.18
50057;BME280;36875;49.468;11.200;2023-01-09T10:38:40;96624.91;;;25.57;36.21
50057;BME280;36875;49.468;11.200;2023-01-09T10:41:11;96612.56;;;25.41;35.81
50057;BME280;36875;49.468;11.200;2023-01-09T10:43:42;96626.41;;;25.48;36.00
50057;BME280;36875;49.468;11.200;2023-01-09T10:46:14;96615.19;;;25.30;36.33
50057;BME280;36875;49.468;11.200;2023-01-09T10:48:44;96619.13;;;25.29;36.14
50057;BME280;36875;49.468;11.200;2023-01-09T10:51:16;96625.41;;;25.26;36.79
50057;BME280;36875;49.468;11.200;2023-01-09T10:53:45;96639.47;;;25.20;36.79
50057;BME280;36875;49.468;11.200;2023-01-09T10:56:18;96635.88;;;25.16;37.06
50057;BME280;36875;49.468;11.200;2023-01-09T10:58:46;96642.22;;;25.20;36.67
50057;BME280;36875;49.468;11.200;2023-01-09T11:01:12;96641.81;;;25.18;36.99
50057;BME280;36875;49.468;11.200;2023-01-09T11:03:39;96616.38;;;24.95;37.01
50057;BME280;36875;49.468;11.200;2023-01-09T11:06:17;96643.19;;;25.05;37.14
50057;BME280;36875;49.468;11.200;2023-01-09T11:08:46;96592.94;;;24.74;36.75
50057;BME280;36875;49.468;11.200;2023-01-09T11:11:30;96634.13;;;25.01;36.04
50057;BME280;36875;49.468;11.200;2023-01-09T11:14:03;96629.88;;;25.07;35.81
50057;BME280;36875;49.468;11.200;2023-01-09T11:16:29;96630.50;;;25.24;35.81
50057;BME280;36875;49.468;11.200;2023-01-09T11:18:57;96631.72;;;25.30;35.93
50057;BME280;36875;49.468;11.200;2023-01-09T11:21:30;96633.44;;;25.45;35.40
50057;BME280;36875;49.468;11.200;2023-01-09T11:24:22;96632.41;;;25.57;35.85
50057;BME280;36875;49.468;11.200;2023-01-09T11:26:52;96643.47;;;25.64;35.25
50057;BME280;36875;49.468;11.200;2023-01-09T11:29:20;96639.22;;;25.74;35.12
50057;BME280;36875;49.468;11.200;2023-01-09T11:31:50;96636.16;;;25.83;34.86
50057;BME280;36875;49.468;11.200;2023-01-09T11:34:16;96632.59;;;25.82;35.18
50057;BME280;36875;49.468;11.200;2023-01-09T11:36:45;96626.72;;;25.84;35.38
50057;BME280;36875;49.468;11.200;2023-01-09T11:39:20;96627.56;;;25.91;34.99
50057;BME280;36875;49.468;11.200;2023-01-09T11:41:51;96625.28;;;26.01;34.85
50057;BME280;36875;49.468;11.200;2023-01-09T11:44:18;96628.47;;;26.03;34.75
50057;BME280;36875;49.468;11.200;2023-01-09T11:46:43;96626.47;;;26.00;34.02
50057;BME280;36875;49.468;11.200;2023-01-09T11:49:20;96629.22;;;25.96;34.69
50057;BME280;36875;49.468;11.200;2023-01-09T11:52:08;96617.00;;;25.93;34.63
50057;BME280;36875;49.468;11.200;2023-01-09T11:54:37;96617.34;;;25.92;34.82
50057;BME280;36875;49.468;11.200;2023-01-09T11:57:07;96617.41;;;25.95;35.28
50057;BME280;36875;49.468;11.200;2023-01-09T11:59:35;96616.25;;;26.00;34.80
50057;BME280;36875;49.468;11.200;2023-01-09T12:02:24;96618.28;;;26.10;34.63
50057;BME280;36875;49.468;11.200;2023-01-09T12:04:55;96612.44;;;26.15;34.50
50057;BME280;36875;49.468;11.200;2023-01-09T12:07:41;96605.69;;;26.13;34.67
50057;BME280;36875;49.468;11.200;2023-01-09T12:10:24;96604.91;;;26.12;35.08
50057;BME280;36875;49.468;11.200;2023-01-09T12:12:59;96612.28;;;25.98;34.99
50057;BME280;36875;49.468;11.200;2023-01-09T12:15:32;96600.81;;;25.92;35.00
50057;BME280;36875;49.468;11.200;2023-01-09T12:18:12;96607.94;;;25.96;34.99
50057;BME280;36875;49.468;11.200;2023-01-09T12:21:10;96614.25;;;26.01;35.11
50057;BME280;36875;49.468;11.200;2023-01-09T12:23:52;96619.41;;;26.02;35.29
50057;BME280;36875;49.468;11.200;2023-01-09T12:26:23;96614.25;;;26.01;35.13
50057;BME280;36875;49.468;11.200;2023-01-09T12:29:19;96626.84;;;25.98;35.52
50057;BME280;36875;49.468;11.200;2023-01-09T12:32:18;96629.25;;;26.00;35.30
50057;BME280;36875;49.468;11.200;2023-01-09T12:35:03;96632.44;;;26.05;35.41
50057;BME280;36875;49.468;11.200;2023-01-09T12:38:00;96633.63;;;26.08;35.22
50057;BME280;36875;49.468;11.200;2023-01-09T12:43:24;96626.25;;;26.26;35.37
50057;BME280;36875;49.468;11.200;2023-01-09T12:46:00;96642.75;;;26.19;35.16
50057;BME280;36875;49.468;11.200;2023-01-09T12:48:39;96641.66;;;26.27;35.48
50057;BME280;36875;49.468;11.200;2023-01-09T12:51:08;96641.25;;;26.25;35.16
50057;BME280;36875;49.468;11.200;2023-01-09T12:53:40;96645.59;;;26.30;35.53
50057;BME280;36875;49.468;11.200;2023-01-09T12:56:11;96643.22;;;26.32;34.86
50057;BME280;36875;49.468;11.200;2023-01-09T12:58:42;96649.88;;;26.20;35.18
50057;BME280;36875;49.468;11.200;2023-01-09T13:01:13;96649.81;;;26.13;35.87
50057;BME280;36875;49.468;11.200;2023-01-09T13:03:43;96622.13;;;25.99;35.74
50057;BME280;36875;49.468;11.200;2023-01-09T13:06:12;96648.25;;;26.12;35.79
50057;BME280;36875;49.468;11.200;2023-01-09T13:08:40;96652.91;;;26.08;35.35
50057;BME280;36875;49.468;11.200;2023-01-09T13:11:09;96652.44;;;25.99;35.93